createdAt,value
2023-04-09T00:01:11.423Z,66.17
2023-04-09T00:03:39.145Z,66.23
2023-04-09T00:06:06.601Z,66.58
2023-04-09T00:08:33.665Z,66.27
2023-04-09T00:11:00.535Z,66.49
2023-04-09T00:13:38.406Z,66.23
2023-04-09T00:16:07.006Z,66.28
2023-04-09T00:18:34.071Z,66.00
2023-04-09T00:21:00.889Z,66.57
2023-04-09T00:23:27.824Z,66.37
2023-04-09T00:25:54.620Z,66.60
2023-04-09T00:28:21.617Z,66.59
2023-04-09T00:30:48.490Z,66.09
2023-04-09T00:33:15.403Z,66.32
2023-04-09T00:35:42.251Z,66.46
2023-04-09T00:38:09.108Z,66.39
2023-04-09T00:40:35.921Z,66.35
2023-04-09T00:43:02.948Z,66.59
2023-04-09T00:45:29.830Z,66.79
2023-04-09T00:47:56.820Z,66.67
2023-04-09T00:50:23.665Z,66.13
2023-04-09T00:52:50.632Z,65.57
2023-04-09T00:55:18.802Z,66.31
2023-04-09T00:57:45.633Z,66.56
2023-04-09T01:00:13.328Z,66.57
2023-04-09T01:02:41.032Z,66.72
2023-04-09T01:05:08.469Z,66.43
2023-04-09T01:08:19.776Z,66.17
2023-04-09T01:11:00.378Z,66.14
2023-04-09T01:13:51.894Z,66.58
2023-04-09T01:16:23.302Z,66.38
2023-04-09T01:19:00.021Z,66.36
2023-04-09T01:21:32.620Z,66.05
2023-04-09T01:24:17.749Z,66.08
2023-04-09T01:27:08.459Z,66.13
2023-04-09T01:29:44.144Z,66.39
2023-04-09T01:32:11.596Z,66.87
2023-04-09T01:34:38.968Z,67.10
2023-04-09T01:37:07.954Z,67.29
2023-04-09T01:39:37.086Z,67.03
2023-04-09T01:42:05.610Z,66.98
2023-04-09T01:44:33.156Z,67.07
2023-04-09T01:47:01.505Z,67.12
2023-04-09T01:49:29.234Z,67.18
2023-04-09T01:51:56.426Z,67.14
2023-04-09T01:54:23.308Z,66.98
2023-04-09T01:56:50.122Z,66.94
2023-04-09T01:59:17.219Z,66.94
2023-04-09T02:01:59.107Z,66.86
2023-04-09T02:04:35.799Z,67.37
2023-04-09T02:07:15.475Z,67.56
2023-04-09T02:09:44.768Z,67.45
2023-04-09T02:12:18.214Z,67.47
2023-04-09T02:14:51.679Z,67.36
2023-04-09T02:17:19.833Z,67.14
2023-04-09T02:19:48.207Z,66.87
2023-04-09T02:22:16.256Z,66.38
2023-04-09T02:24:43.169Z,66.46
2023-04-09T02:27:10.246Z,66.70
2023-04-09T02:29:37.184Z,66.36
2023-04-09T02:32:04.171Z,67.17
2023-04-09T02:34:31.145Z,67.03
2023-04-09T02:36:57.956Z,67.39
2023-04-09T02:39:24.803Z,67.20
2023-04-09T02:41:52.310Z,67.16
2023-04-09T02:44:19.208Z,67.28
2023-04-09T02:46:49.019Z,67.43
2023-04-09T02:49:16.006Z,67.10
2023-04-09T02:51:42.839Z,67.36
2023-04-09T02:54:09.686Z,67.34
2023-04-09T02:56:36.500Z,67.02
2023-04-09T02:59:03.373Z,67.19
2023-04-09T03:01:30.466Z,67.08
2023-04-09T03:03:57.429Z,67.11
2023-04-09T03:06:24.344Z,66.77
2023-04-09T03:08:51.348Z,66.52
2023-04-09T03:11:18.515Z,66.89
2023-04-09T03:13:45.415Z,67.04
2023-04-09T03:16:12.301Z,67.20
2023-04-09T03:18:39.109Z,67.16
2023-04-09T03:21:09.620Z,67.20
2023-04-09T03:23:37.119Z,67.34
2023-04-09T03:26:06.295Z,67.68
2023-04-09T03:28:33.317Z,67.42
2023-04-09T03:31:00.279Z,67.40
2023-04-09T03:33:27.120Z,66.97
2023-04-09T03:35:54.023Z,66.80
2023-04-09T03:38:21.153Z,66.96
2023-04-09T03:40:48.143Z,67.14
2023-04-09T03:43:14.955Z,67.30
2023-04-09T03:45:41.778Z,67.26
2023-04-09T03:48:08.622Z,66.86
2023-04-09T03:50:41.882Z,66.78
2023-04-09T03:53:08.780Z,66.82
2023-04-09T03:55:35.686Z,66.90
2023-04-09T03:58:02.614Z,66.57
2023-04-09T04:00:29.401Z,66.52
2023-04-09T04:02:56.353Z,66.71
2023-04-09T04:05:25.612Z,66.49
2023-04-09T04:07:52.745Z,66.75
2023-04-09T04:10:19.874Z,66.26
2023-04-09T04:12:46.936Z,66.41
2023-04-09T04:15:13.950Z,66.63
2023-04-09T04:17:40.851Z,66.12
2023-04-09T04:20:08.662Z,66.59
2023-04-09T04:22:35.829Z,66.01
2023-04-09T04:25:04.501Z,65.67
2023-04-09T04:27:31.383Z,66.10
2023-04-09T04:30:00.061Z,66.26
2023-04-09T04:32:27.277Z,66.04
2023-04-09T04:34:54.440Z,65.89
2023-04-09T04:37:21.653Z,65.69
2023-04-09T04:39:48.918Z,65.72
2023-04-09T04:42:16.627Z,65.50
2023-04-09T04:44:44.467Z,65.45
2023-04-09T04:47:11.356Z,65.46
2023-04-09T04:49:38.147Z,65.58
2023-04-09T04:52:06.117Z,65.49
2023-04-09T04:54:34.248Z,65.59
2023-04-09T04:57:01.527Z,65.60
2023-04-09T04:59:28.834Z,66.09
2023-04-09T05:01:55.864Z,65.90
2023-04-09T05:04:23.056Z,66.21
2023-04-09T05:06:50.045Z,66.61
2023-04-09T05:09:16.907Z,66.62
2023-04-09T05:11:43.730Z,66.91
2023-04-09T05:14:10.878Z,67.38
2023-04-09T05:16:37.746Z,67.19
2023-04-09T05:19:04.595Z,67.04
2023-04-09T05:21:32.120Z,67.26
2023-04-09T05:23:59.156Z,67.10
2023-04-09T05:26:26.816Z,66.92
2023-04-09T05:28:53.882Z,66.64
2023-04-09T05:31:20.905Z,66.78
2023-04-09T05:33:47.782Z,66.18
2023-04-09T05:36:19.004Z,66.49
2023-04-09T05:38:48.883Z,66.32
2023-04-09T05:41:16.119Z,67.06
2023-04-09T05:43:43.101Z,67.00
2023-04-09T05:46:10.019Z,67.31
2023-04-09T05:48:37.290Z,66.95
2023-04-09T05:51:04.466Z,67.29
2023-04-09T05:53:32.013Z,66.65
2023-04-09T05:55:59.032Z,66.78
2023-04-09T05:58:26.137Z,66.94
2023-04-09T06:00:52.912Z,67.25
2023-04-09T06:03:20.645Z,66.68
2023-04-09T06:05:48.809Z,67.19
2023-04-09T06:08:16.207Z,65.23
2023-04-09T06:10:43.055Z,64.53
2023-04-09T06:13:10.597Z,62.85
2023-04-09T06:15:39.200Z,63.36
2023-04-09T06:18:06.315Z,62.61
2023-04-09T06:20:33.472Z,62.70
2023-04-09T06:23:00.266Z,61.00
2023-04-09T06:25:27.092Z,60.63
2023-04-09T06:27:53.926Z,60.59
2023-04-09T06:30:20.838Z,59.42
2023-04-09T06:32:54.553Z,59.14
2023-04-09T06:35:22.983Z,59.33
2023-04-09T06:37:49.832Z,58.39
2023-04-09T06:40:16.725Z,57.31
2023-04-09T06:42:43.593Z,55.27
2023-04-09T06:45:10.604Z,55.47
2023-04-09T06:47:37.539Z,55.15
2023-04-09T06:50:05.063Z,55.58
2023-04-09T06:52:31.851Z,56.10
2023-04-09T06:54:58.673Z,56.22
2023-04-09T06:57:26.386Z,55.45
2023-04-09T06:59:53.227Z,55.04
2023-04-09T07:02:20.512Z,55.09
2023-04-09T07:04:47.832Z,56.91
2023-04-09T07:07:14.833Z,58.02
2023-04-09T07:09:42.228Z,58.45
2023-04-09T07:12:09.062Z,59.99
2023-04-09T07:14:35.872Z,57.77
2023-04-09T07:17:02.658Z,56.40
2023-04-09T07:19:29.484Z,53.12
2023-04-09T07:21:56.470Z,51.82
2023-04-09T07:24:23.504Z,49.98
2023-04-09T07:26:52.040Z,49.58
2023-04-09T07:29:20.704Z,49.74
2023-04-09T07:31:47.731Z,48.45
2023-04-09T07:34:14.683Z,49.42
2023-04-09T07:36:42.901Z,49.58
2023-04-09T07:39:09.973Z,54.85
2023-04-09T07:41:37.456Z,54.07
2023-04-09T07:44:06.153Z,51.46
2023-04-09T07:46:33.273Z,50.69
2023-04-09T07:49:00.324Z,50.06
2023-04-09T07:51:27.735Z,49.83
2023-04-09T07:53:54.649Z,50.91
2023-04-09T07:56:21.543Z,50.17
2023-04-09T07:58:49.306Z,48.01
2023-04-09T08:01:16.284Z,47.23
2023-04-09T08:03:43.302Z,45.99
2023-04-09T08:06:10.177Z,45.54
2023-04-09T08:08:37.509Z,44.53
2023-04-09T08:11:04.653Z,42.83
2023-04-09T08:13:31.524Z,43.41
2023-04-09T08:16:04.180Z,45.18
2023-04-09T08:18:31.233Z,43.87
2023-04-09T08:20:58.325Z,42.75
2023-04-09T08:23:25.261Z,42.22
2023-04-09T08:25:52.121Z,41.99
2023-04-09T08:28:19.036Z,43.01
2023-04-09T08:30:47.655Z,43.80
2023-04-09T08:33:14.836Z,45.40
2023-04-09T08:35:42.501Z,44.60
2023-04-09T08:38:09.380Z,42.61
2023-04-09T08:40:37.026Z,42.05
2023-04-09T08:43:08.919Z,42.13
2023-04-09T08:45:36.544Z,42.19
2023-04-09T08:48:05.394Z,41.84
2023-04-09T08:50:34.118Z,42.84
2023-04-09T08:53:05.686Z,43.14
2023-04-09T08:55:37.333Z,41.13
2023-04-09T08:58:07.380Z,40.74
2023-04-09T09:00:34.295Z,40.49
2023-04-09T09:03:13.197Z,40.36
2023-04-09T09:05:45.329Z,40.78
2023-04-09T09:08:24.594Z,38.88
2023-04-09T09:10:51.896Z,39.60
2023-04-09T09:13:27.116Z,38.09
2023-04-09T09:16:11.476Z,38.45
2023-04-09T09:18:44.407Z,38.05
2023-04-09T09:21:16.520Z,38.06
2023-04-09T09:23:44.413Z,37.38
2023-04-09T09:26:25.736Z,39.75
2023-04-09T09:28:53.301Z,38.71
2023-04-09T09:31:22.406Z,38.38
2023-04-09T09:33:51.095Z,38.90
2023-04-09T09:36:34.882Z,39.60
2023-04-09T09:39:10.331Z,37.63
2023-04-09T09:41:38.110Z,37.06
2023-04-09T09:44:07.095Z,38.93
2023-04-09T09:46:37.316Z,37.78
2023-04-09T09:49:04.972Z,38.09
2023-04-09T09:51:34.161Z,38.31
2023-04-09T09:54:02.739Z,39.04
2023-04-09T09:56:37.272Z,39.50
2023-04-09T09:59:23.954Z,39.47
2023-04-09T10:02:07.543Z,38.90
2023-04-09T10:04:36.075Z,37.71
2023-04-09T10:07:06.957Z,39.19
2023-04-09T10:09:41.413Z,41.01
2023-04-09T10:12:09.836Z,39.98
2023-04-09T10:14:38.383Z,37.26
2023-04-09T10:17:05.760Z,37.62
2023-04-09T10:19:42.142Z,38.23
2023-04-09T10:22:17.885Z,38.99
2023-04-09T10:24:45.688Z,39.45
2023-04-09T10:27:16.239Z,40.80
2023-04-09T10:29:48.445Z,40.39
2023-04-09T10:32:28.446Z,39.56
2023-04-09T10:35:01.529Z,40.09
2023-04-09T10:37:28.865Z,39.24
2023-04-09T10:39:57.685Z,39.16
2023-04-09T10:42:30.708Z,39.44
2023-04-09T10:45:14.974Z,39.46
2023-04-09T10:47:43.851Z,39.41
2023-04-09T10:50:27.991Z,39.51
2023-04-09T10:52:58.212Z,40.04
2023-04-09T10:55:40.022Z,40.11
2023-04-09T10:58:16.087Z,39.26
2023-04-09T11:00:45.688Z,39.63
2023-04-09T11:03:25.659Z,39.22
2023-04-09T11:06:09.188Z,39.10
2023-04-09T11:08:38.737Z,38.80
2023-04-09T11:11:05.889Z,39.00
2023-04-09T11:13:34.058Z,37.84
2023-04-09T11:16:03.356Z,38.04
2023-04-09T11:18:31.035Z,38.74
2023-04-09T11:21:00.087Z,38.31
2023-04-09T11:23:28.171Z,37.84
2023-04-09T11:25:56.130Z,37.53
2023-04-09T11:28:23.602Z,37.23
2023-04-09T11:30:54.041Z,36.86
2023-04-09T11:33:21.303Z,36.17
2023-04-09T11:35:48.839Z,36.46
2023-04-09T11:38:15.832Z,36.53
2023-04-09T11:40:51.467Z,36.57
2023-04-09T11:43:20.608Z,37.14
2023-04-09T11:45:48.577Z,37.72
2023-04-09T11:48:18.427Z,37.28
2023-04-09T11:50:46.562Z,36.61
2023-04-09T11:53:21.165Z,38.07
2023-04-09T11:55:51.615Z,38.17
2023-04-09T11:58:19.074Z,38.26
2023-04-09T12:00:46.063Z,38.08
2023-04-09T12:03:13.505Z,36.64
2023-04-09T12:05:51.204Z,35.74
2023-04-09T12:08:24.014Z,35.96
2023-04-09T12:10:53.691Z,36.08
2023-04-09T12:13:21.265Z,36.52
2023-04-09T12:15:50.115Z,37.36
2023-04-09T12:18:17.103Z,34.63
2023-04-09T12:20:45.372Z,34.43
2023-04-09T12:23:13.906Z,34.09
2023-04-09T12:25:43.601Z,33.78
2023-04-09T12:28:17.922Z,34.43
2023-04-09T12:30:45.216Z,35.28
2023-04-09T12:33:12.219Z,33.07
2023-04-09T12:35:39.452Z,31.55
2023-04-09T12:38:06.423Z,32.11
2023-04-09T12:40:33.369Z,32.80
2023-04-09T12:43:00.197Z,35.25
2023-04-09T12:45:27.980Z,35.48
2023-04-09T12:47:54.994Z,35.73
2023-04-09T12:50:22.135Z,36.36
2023-04-09T12:52:49.031Z,36.28
2023-04-09T12:55:16.701Z,35.87
2023-04-09T12:57:46.842Z,35.61
2023-04-09T13:00:14.681Z,35.62
2023-04-09T13:02:41.855Z,35.75
2023-04-09T13:05:09.039Z,35.58
2023-04-09T13:07:36.097Z,34.57
2023-04-09T13:10:03.367Z,32.95
2023-04-09T13:12:30.563Z,31.12
2023-04-09T13:14:59.033Z,31.63
2023-04-09T13:17:26.144Z,29.85
2023-04-09T13:19:53.588Z,29.76
2023-04-09T13:22:20.622Z,31.74
2023-04-09T13:24:47.473Z,30.75
2023-04-09T13:27:14.885Z,31.90
2023-04-09T13:29:41.732Z,32.33
2023-04-09T13:32:10.693Z,32.59
2023-04-09T13:34:39.779Z,32.81
2023-04-09T13:37:07.329Z,33.84
2023-04-09T13:39:34.249Z,34.31
2023-04-09T13:42:07.400Z,32.51
2023-04-09T13:44:42.316Z,33.27
2023-04-09T13:47:11.192Z,33.45
2023-04-09T13:49:38.457Z,34.96
2023-04-09T13:52:05.843Z,35.95
2023-04-09T13:54:33.893Z,36.37
2023-04-09T13:57:01.159Z,37.14
2023-04-09T13:59:27.977Z,38.05
2023-04-09T14:01:54.895Z,37.71
2023-04-09T14:04:21.844Z,35.92
2023-04-09T14:06:48.750Z,34.31
2023-04-09T14:09:15.614Z,31.80
2023-04-09T14:11:42.450Z,30.56
2023-04-09T14:14:09.397Z,29.69
2023-04-09T14:16:36.541Z,31.26
2023-04-09T14:19:03.488Z,32.55
2023-04-09T14:21:30.422Z,34.50
2023-04-09T14:23:57.272Z,36.13
2023-04-09T14:26:24.481Z,35.82
2023-04-09T14:28:51.879Z,37.01
2023-04-09T14:31:21.476Z,33.43
2023-04-09T14:33:48.854Z,30.02
2023-04-09T14:36:16.636Z,28.92
2023-04-09T14:38:43.510Z,27.12
2023-04-09T14:41:10.466Z,27.54
2023-04-09T14:43:37.504Z,27.09
2023-04-09T14:46:06.300Z,25.05
2023-04-09T14:48:33.222Z,25.29
2023-04-09T14:51:00.032Z,24.49
2023-04-09T14:53:26.877Z,24.55
2023-04-09T14:55:53.704Z,23.31
2023-04-09T14:58:20.718Z,23.92
2023-04-09T15:00:47.687Z,21.89
2023-04-09T15:03:14.652Z,21.71
2023-04-09T15:05:41.821Z,21.34
2023-04-09T15:08:08.651Z,20.35
2023-04-09T15:10:37.047Z,20.18
2023-04-09T15:13:03.900Z,20.80
2023-04-09T15:15:31.144Z,20.66
2023-04-09T15:17:58.024Z,22.51
2023-04-09T15:20:24.931Z,20.84
2023-04-09T15:22:51.787Z,22.30
2023-04-09T15:25:18.705Z,23.34
2023-04-09T15:27:46.840Z,25.06
2023-04-09T15:30:13.753Z,25.26
2023-04-09T15:32:40.772Z,27.50
2023-04-09T15:35:08.223Z,29.36
2023-04-09T15:37:35.348Z,31.12
2023-04-09T15:40:02.192Z,29.81
2023-04-09T15:42:29.029Z,30.43
2023-04-09T15:44:55.867Z,30.12
2023-04-09T15:47:22.766Z,30.54
2023-04-09T15:49:49.736Z,30.56
2023-04-09T15:52:16.615Z,32.05
2023-04-09T15:54:43.388Z,32.27
2023-04-09T15:57:10.216Z,33.26
2023-04-09T15:59:37.101Z,33.64
2023-04-09T16:02:04.569Z,34.13
2023-04-09T16:04:31.659Z,33.69
2023-04-09T16:06:58.671Z,34.08
2023-04-09T16:09:25.507Z,34.79
2023-04-09T16:11:52.323Z,33.95
2023-04-09T16:14:19.240Z,33.97
2023-04-09T16:16:49.796Z,34.18
2023-04-09T16:19:17.740Z,34.68
2023-04-09T16:21:45.392Z,34.39
2023-04-09T16:24:12.847Z,34.21
2023-04-09T16:26:44.962Z,35.64
2023-04-09T16:29:12.699Z,35.83
2023-04-09T16:31:42.280Z,36.22
2023-04-09T16:34:09.203Z,35.82
2023-04-09T16:36:36.997Z,35.25
2023-04-09T16:39:07.166Z,34.54
2023-04-09T16:41:35.706Z,35.13
2023-04-09T16:44:04.245Z,35.92
2023-04-09T16:46:31.575Z,35.61
2023-04-09T16:48:58.426Z,36.07
2023-04-09T16:51:25.666Z,36.12
2023-04-09T16:53:52.490Z,35.61
2023-04-09T16:56:19.356Z,35.51
2023-04-09T16:58:46.661Z,35.85
2023-04-09T17:01:13.599Z,36.27
2023-04-09T17:03:40.722Z,36.41
2023-04-09T17:06:07.703Z,36.83
2023-04-09T17:08:35.287Z,37.38
2023-04-09T17:11:02.476Z,37.22
2023-04-09T17:13:31.596Z,36.99
2023-04-09T17:15:58.602Z,37.37
2023-04-09T17:18:25.530Z,38.08
2023-04-09T17:20:52.619Z,38.73
2023-04-09T17:23:19.612Z,39.06
2023-04-09T17:25:47.065Z,39.78
2023-04-09T17:28:14.013Z,39.62
2023-04-09T17:30:41.560Z,39.97
2023-04-09T17:33:08.797Z,40.60
2023-04-09T17:35:35.759Z,40.36
2023-04-09T17:38:02.732Z,40.89
2023-04-09T17:40:29.602Z,41.80
2023-04-09T17:42:56.504Z,41.95
2023-04-09T17:45:23.348Z,42.32
2023-04-09T17:47:51.215Z,42.68
2023-04-09T17:50:18.389Z,42.90
2023-04-09T17:52:45.282Z,43.37
2023-04-09T17:55:12.813Z,43.99
2023-04-09T17:57:42.944Z,44.00
2023-04-09T18:00:11.007Z,44.23
2023-04-09T18:02:38.005Z,44.81
2023-04-09T18:05:05.488Z,45.03
2023-04-09T18:07:35.535Z,45.56
2023-04-09T18:10:03.782Z,45.47
2023-04-09T18:12:30.710Z,46.11
2023-04-09T18:14:57.654Z,46.23
2023-04-09T18:17:26.240Z,46.26
2023-04-09T18:19:58.285Z,46.86
2023-04-09T18:22:26.799Z,47.32
2023-04-09T18:24:54.195Z,47.22
2023-04-09T18:27:21.598Z,47.72
2023-04-09T18:29:51.483Z,47.75
2023-04-09T18:32:19.623Z,48.28
2023-04-09T18:34:47.703Z,47.96
2023-04-09T18:37:15.307Z,48.24
2023-04-09T18:39:42.217Z,47.98
2023-04-09T18:42:09.103Z,48.58
2023-04-09T18:44:39.126Z,49.02
2023-04-09T18:47:09.161Z,48.99
2023-04-09T18:49:36.861Z,49.55
2023-04-09T18:52:09.131Z,50.13
2023-04-09T18:54:37.040Z,50.26
2023-04-09T18:57:04.218Z,50.48
2023-04-09T18:59:33.441Z,51.79
2023-04-09T19:02:06.332Z,51.79
2023-04-09T19:04:39.596Z,51.70
2023-04-09T19:07:06.889Z,51.82
2023-04-09T19:09:34.487Z,52.35
2023-04-09T19:12:02.193Z,52.69
2023-04-09T19:14:29.153Z,53.17
2023-04-09T19:16:57.026Z,53.36
2023-04-09T19:19:23.945Z,53.27
2023-04-09T19:21:51.195Z,53.90
2023-04-09T19:24:18.042Z,54.26
2023-04-09T19:26:44.904Z,54.72
2023-04-09T19:29:11.766Z,54.81
2023-04-09T19:31:38.654Z,54.89
2023-04-09T19:34:06.153Z,54.96
2023-04-09T19:36:33.960Z,54.80
2023-04-09T19:39:01.134Z,54.72
2023-04-09T19:41:27.958Z,54.64
2023-04-09T19:43:54.812Z,54.91
2023-04-09T19:46:21.693Z,55.10
2023-04-09T19:48:48.618Z,55.33
2023-04-09T19:51:20.095Z,55.58
2023-04-09T19:53:47.880Z,55.15
2023-04-09T19:56:15.596Z,55.18
2023-04-09T19:58:43.803Z,55.16
2023-04-09T20:01:10.891Z,55.43
2023-04-09T20:03:38.109Z,55.22
2023-04-09T20:06:09.894Z,54.99
2023-04-09T20:08:37.880Z,54.82
2023-04-09T20:11:05.368Z,55.10
2023-04-09T20:13:33.077Z,55.23
2023-04-09T20:16:00.030Z,56.05
2023-04-09T20:18:27.616Z,55.39
2023-04-09T20:20:54.732Z,56.04
2023-04-09T20:23:21.635Z,56.21
2023-04-09T20:25:54.227Z,56.04
2023-04-09T20:28:21.859Z,56.18
2023-04-09T20:30:49.190Z,56.07
2023-04-09T20:33:17.678Z,56.05
2023-04-09T20:35:44.497Z,56.05
2023-04-09T20:38:11.352Z,56.21
2023-04-09T20:40:38.224Z,56.02
2023-04-09T20:43:05.122Z,56.02
2023-04-09T20:45:32.027Z,56.00
2023-04-09T20:47:58.895Z,55.99
2023-04-09T20:50:25.926Z,56.14
2023-04-09T20:52:52.791Z,56.44
2023-04-09T20:55:19.674Z,56.36
2023-04-09T20:57:46.608Z,56.24
2023-04-09T21:00:14.041Z,56.35
2023-04-09T21:02:41.170Z,56.60
2023-04-09T21:05:19.432Z,56.93
2023-04-09T21:07:49.179Z,57.23
2023-04-09T21:10:16.042Z,57.42
2023-04-09T21:12:42.856Z,57.47
2023-04-09T21:15:10.503Z,57.68
2023-04-09T21:17:37.424Z,57.42
2023-04-09T21:20:04.655Z,57.54
2023-04-09T21:22:32.023Z,57.56
2023-04-09T21:24:58.850Z,57.77
2023-04-09T21:27:25.909Z,58.06
2023-04-09T21:29:53.604Z,57.70
2023-04-09T21:32:20.597Z,57.93
2023-04-09T21:34:47.401Z,58.02
2023-04-09T21:37:14.224Z,58.00
2023-04-09T21:39:41.097Z,58.27
2023-04-09T21:42:08.777Z,57.87
2023-04-09T21:44:35.687Z,57.83
2023-04-09T21:47:07.423Z,57.92
2023-04-09T21:49:39.049Z,58.45
2023-04-09T21:52:10.738Z,58.74
2023-04-09T21:54:37.561Z,58.74
2023-04-09T21:57:05.112Z,58.38
2023-04-09T21:59:31.961Z,58.78
2023-04-09T22:01:58.872Z,58.82
2023-04-09T22:04:26.175Z,58.76
2023-04-09T22:06:53.019Z,58.42
2023-04-09T22:09:19.842Z,58.20
2023-04-09T22:11:47.434Z,58.25
2023-04-09T22:14:15.542Z,58.46
2023-04-09T22:16:42.309Z,58.01
2023-04-09T22:19:09.627Z,58.10
2023-04-09T22:21:36.413Z,58.45
2023-04-09T22:24:03.298Z,58.20
2023-04-09T22:26:31.521Z,58.20
2023-04-09T22:28:58.409Z,58.56
2023-04-09T22:31:27.313Z,59.08
2023-04-09T22:33:54.214Z,59.10
2023-04-09T22:36:21.354Z,58.95
2023-04-09T22:38:48.206Z,58.88
2023-04-09T22:41:17.395Z,59.15
2023-04-09T22:43:44.315Z,59.11
2023-04-09T22:46:11.846Z,59.13
2023-04-09T22:48:44.641Z,59.25
2023-04-09T22:51:12.817Z,59.04
2023-04-09T22:53:39.849Z,59.26
2023-04-09T22:56:08.131Z,59.17
2023-04-09T22:58:36.155Z,59.05
2023-04-09T23:01:03.753Z,59.24
2023-04-09T23:03:30.781Z,59.00
2023-04-09T23:05:57.694Z,59.19
2023-04-09T23:08:24.494Z,59.57
2023-04-09T23:10:51.325Z,60.74
2023-04-09T23:13:18.114Z,61.53
2023-04-09T23:15:45.031Z,61.68
2023-04-09T23:18:11.885Z,61.32
2023-04-09T23:20:38.806Z,61.54
2023-04-09T23:23:05.810Z,61.54
2023-04-09T23:25:32.669Z,61.54
2023-04-09T23:27:59.536Z,61.58
2023-04-09T23:30:26.390Z,61.69
2023-04-09T23:32:55.558Z,61.42
2023-04-09T23:35:23.934Z,61.74
2023-04-09T23:37:50.841Z,61.45
2023-04-09T23:40:20.299Z,61.73
2023-04-09T23:42:48.041Z,61.85
2023-04-09T23:45:15.015Z,61.44
2023-04-09T23:47:42.298Z,61.57
2023-04-09T23:50:09.872Z,61.26
2023-04-09T23:52:38.473Z,61.42
2023-04-09T23:55:09.518Z,61.96
2023-04-09T23:57:36.451Z,62.20
